Time;durP1;ratioP1;P1;durP2;ratioP2;P2;SDS_P1;SDS_P2;PMS_P1;PMS_P2;Temp;Humidity;BMP_temperature;BMP_pressure;BME280_temperature;BME280_humidity;BME280_pressure;Samples;Min_cycle;Max_cycle;Signal;HPM_P1;HPM_P2
2022/09/08 07:44:00;;;;;;;9.28;4.78;;;;;;;24.78;46.58;101005.97;1809451;76;23336;-88
2022/09/08 07:46:53;;;;;;;14.68;4.35;;;;;;;24.68;46.83;101008.59;1803764;78;21195;-87
2022/09/08 07:49:52;;;;;;;12.18;4.45;;;;;;;24.68;46.92;101014.16;1846565;76;21132;-84
2022/09/08 07:52:39;;;;;;;11.40;4.58;;;;;;;24.67;46.91;101015.88;1807433;77;21123;-82
2022/09/08 07:55:37;;;;;;;20.92;4.60;;;;;;;24.62;46.78;101005.77;1830182;77;21006;-81
2022/09/08 07:58:26;;;;;;;20.15;4.33;;;;;;;24.57;46.72;101010.95;1828771;77;21044;-83
2022/09/08 08:01:00;;;;;;;33.30;6.05;;;;;;;24.53;46.63;101011.39;1823955;78;20965;-81
2022/09/08 08:04:05;;;;;;;19.45;4.78;;;;;;;24.50;46.67;101010.69;1839614;76;21708;-81
2022/09/08 08:06:49;;;;;;;19.80;4.50;;;;;;;24.49;46.70;101008.23;1748283;80;20992;-86
2022/09/08 08:09:53;;;;;;;11.60;4.80;;;;;;;24.46;46.70;101011.70;1815066;77;21580;-81
2022/09/08 08:12:47;;;;;;;10.28;4.22;;;;;;;24.45;46.64;101015.63;1805140;77;21074;-77
2022/09/08 08:15:39;;;;;;;14.55;5.47;;;;;;;24.44;46.59;101017.59;1819092;76;21068;-75
2022/09/08 08:18:37;;;;;;;11.10;4.67;;;;;;;24.42;46.53;101014.92;1806999;77;21143;-81
2022/09/08 08:21:23;;;;;;;12.15;4.50;;;;;;;24.41;46.49;101014.68;1840159;76;20996;-78
2022/09/08 08:24:24;;;;;;;11.65;5.20;;;;;;;24.39;46.37;101009.48;1798085;77;21064;-75
2022/09/08 08:27:18;;;;;;;13.88;4.67;;;;;;;24.37;46.38;101006.78;1834378;77;21083;-77
2022/09/08 08:30:14;;;;;;;8.90;4.22;;;;;;;24.35;46.26;101007.71;1808995;77;21555;-75
2022/09/08 08:33:10;;;;;;;15.23;4.58;;;;;;;24.34;46.12;101005.50;1812041;77;21122;-76
2022/09/08 08:35:54;;;;;;;11.57;4.35;;;;;;;24.33;46.19;101005.83;1810676;77;21016;-76
2022/09/08 08:38:28;;;;;;;9.58;4.20;;;;;;;24.31;46.36;101002.02;1805926;78;21141;-77
2022/09/08 08:40:59;;;;;;;7.28;4.15;;;;;;;24.32;46.37;100998.63;1778650;77;21079;-81
2022/09/08 08:43:56;;;;;;;12.68;4.72;;;;;;;24.31;46.19;100990.08;1797766;78;21040;-84
2022/09/08 08:46:52;;;;;;;16.32;4.70;;;;;;;24.31;46.23;100982.55;1794151;78;22539;-80
2022/09/08 08:49:59;;;;;;;10.28;4.08;;;;;;;24.31;46.43;100980.34;1796676;78;21032;-76
2022/09/08 08:52:49;;;;;;;20.23;4.90;;;;;;;24.31;46.34;100977.56;1822152;77;21528;-80
2022/09/08 08:55:58;;;;;;;14.53;4.60;;;;;;;24.32;46.47;100984.16;1799796;77;21177;-80
2022/09/08 08:59:16;;;;;;;17.60;4.60;;;;;;;24.33;46.67;100981.63;1802555;78;21799;-81
2022/09/08 09:02:32;;;;;;;10.38;4.58;;;;;;;24.34;46.79;100985.22;1834500;76;21107;-81
2022/09/08 09:05:11;;;;;;;23.42;5.08;;;;;;;24.35;46.73;100975.73;1837141;77;21549;-81
2022/09/08 09:08:17;;;;;;;11.63;3.90;;;;;;;24.35;46.84;100975.16;1800775;77;21075;-82
2022/09/08 09:11:10;;;;;;;14.68;4.72;;;;;;;24.35;46.91;100975.73;1820419;76;21076;-85
2022/09/08 09:14:23;;;;;;;10.48;4.17;;;;;;;24.36;47.16;100966.22;1823056;77;21068;-81
2022/09/08 09:17:03;;;;;;;9.55;4.37;;;;;;;24.37;47.32;100958.11;1782351;79;21657;-82
2022/09/08 09:20:15;;;;;;;13.22;4.25;;;;;;;24.38;47.65;100960.56;1794285;79;21720;-83
2022/09/08 09:22:56;;;;;;;8.43;4.55;;;;;;;24.39;47.60;100955.25;1789589;78;21035;-81
2022/09/08 09:25:35;;;;;;;8.45;4.40;;;;;;;24.39;47.24;100946.09;1775136;79;21942;-83
2022/09/08 09:28:29;;;;;;;12.68;4.65;;;;;;;24.41;47.18;100943.77;1777376;78;21047;-82
2022/09/08 09:31:01;;;;;;;6.92;4.40;;;;;;;24.42;47.13;100945.40;1777678;79;22097;-82
2022/09/08 09:33:39;;;;;;;10.58;4.42;;;;;;;24.42;47.16;100942.63;1802437;77;21055;-85
2022/09/08 09:36:46;;;;;;;9.23;4.33;;;;;;;24.42;47.25;100942.05;1799718;78;21034;-86
2022/09/08 09:39:46;;;;;;;10.28;4.10;;;;;;;24.43;47.26;100936.73;1797205;79;21091;-83
2022/09/08 09:42:23;;;;;;;10.78;4.53;;;;;;;24.44;47.41;100946.67;1784055;79;21406;-84
2022/09/08 09:45:31;;;;;;;10.23;5.33;;;;;;;24.43;47.52;100943.68;1751247;80;21261;-84
2022/09/08 09:48:32;;;;;;;15.05;4.60;;;;;;;24.44;47.56;100940.33;1745072;79;21067;-83
2022/09/08 09:51:36;;;;;;;10.70;4.37;;;;;;;24.46;47.40;100930.48;1740111;79;21048;-82
2022/09/08 09:54:35;;;;;;;11.78;4.80;;;;;;;24.49;47.32;100931.17;1738187;79;21492;-85
2022/09/08 09:57:52;;;;;;;12.60;5.08;;;;;;;24.50;47.26;100930.60;1744844;79;21071;-83
2022/09/08 10:00:23;;;;;;;12.40;5.42;;;;;;;24.51;47.47;100930.27;1748007;79;21212;-83
2022/09/08 10:03:00;;;;;;;15.23;5.97;;;;;;;24.54;47.65;100928.77;1744153;79;21131;-85
2022/09/08 10:05:57;;;;;;;9.93;4.95;;;;;;;24.55;47.65;100931.22;1756368;79;21086;-84
2022/09/08 10:08:51;;;;;;;12.50;5.65;;;;;;;24.57;47.26;100925.29;1749293;79;21111;-81
2022/09/08 10:11:43;;;;;;;14.00;4.87;;;;;;;24.57;47.40;100919.73;1716893;81;21087;-81
2022/09/08 10:14:42;;;;;;;8.83;5.40;;;;;;;24.58;47.46;100921.36;1739456;79;21847;-81
2022/09/08 10:17:55;;;;;;;6.70;5.08;;;;;;;24.60;47.48;100921.84;1748850;79;21055;-81
2022/09/08 10:21:01;;;;;;;9.13;5.22;;;;;;;24.58;47.02;100912.44;1748432;78;21099;-80
2022/09/08 10:24:11;;;;;;;12.03;4.40;;;;;;;24.58;46.97;100911.63;1751612;79;21484;-81
2022/09/08 10:26:44;;;;;;;;;;;;;;;24.58;47.00;100913.83;1742173;79;21273;-84
2022/09/08 10:29:54;;;;;;;11.28;5.15;;;;;;;24.56;47.21;100914.77;1750739;79;21030;-84
2022/09/08 10:32:41;;;;;;;9.70;5.62;;;;;;;24.55;47.02;100913.13;1745311;80;21513;-84
2022/09/08 10:35:21;;;;;;;8.85;5.17;;;;;;;24.55;46.92;100920.66;1740979;79;21104;-83
2022/09/08 10:38:07;;;;;;;6.85;5.20;;;;;;;24.53;46.92;100908.48;1735745;79;21096;-83
2022/09/08 10:40:44;;;;;;;8.03;4.50;;;;;;;24.53;46.75;100915.43;1745481;81;21052;-83
2022/09/08 10:43:40;;;;;;;7.58;4.42;;;;;;;24.55;46.59;100917.31;1762312;78;21651;-83
2022/09/08 10:46:35;;;;;;;6.83;4.47;;;;;;;24.55;46.34;100906.18;1822244;77;21098;-83
2022/09/08 10:49:25;;;;;;;4.85;3.72;;;;;;;24.56;46.20;100899.47;1821273;76;21102;-83
2022/09/08 10:52:32;;;;;;;6.42;3.70;;;;;;;24.57;46.09;100898.86;1791891;79;21075;-82
2022/09/08 10:55:31;;;;;;;9.20;3.27;;;;;;;24.56;45.90;100893.09;1791715;79;21942;-82
2022/09/08 10:58:20;;;;;;;8.48;3.42;;;;;;;24.57;45.85;100890.52;1797060;79;21167;-82
2022/09/08 11:01:19;;;;;;;9.80;3.60;;;;;;;24.58;45.79;100891.58;1822788;77;20998;-81
2022/09/08 11:04:28;;;;;;;14.43;3.90;;;;;;;24.60;45.92;100887.08;1778918;79;21490;-80
2022/09/08 11:07:25;;;;;;;11.88;3.80;;;;;;;24.62;46.16;100881.97;1800945;79;22244;-81
2022/09/08 11:10:21;;;;;;;7.60;2.80;;;;;;;24.64;46.20;100883.84;1796445;79;21047;-82
2022/09/08 11:13:11;;;;;;;6.50;3.10;;;;;;;24.66;46.15;100886.27;1797724;79;21555;-80
2022/09/08 11:15:59;;;;;;;13.93;3.42;;;;;;;24.67;45.88;100885.11;1789395;79;20992;-79
2022/09/08 11:18:49;;;;;;;7.20;2.90;;;;;;;24.68;45.55;100876.43;1787790;79;21089;-78
2022/09/08 11:21:31;;;;;;;6.70;2.98;;;;;;;24.69;45.61;100874.47;1775518;79;21075;-79
2022/09/08 11:24:09;;;;;;;6.47;2.77;;;;;;;24.69;45.52;100866.12;1788189;79;21028;-80
2022/09/08 11:26:53;;;;;;;6.05;2.58;;;;;;;24.68;45.61;100863.91;1756081;79;21022;-79
2022/09/08 11:29:19;;;;;;;6.75;3.45;;;;;;;24.67;45.68;100864.25;1795000;78;21139;-80
2022/09/08 11:32:16;;;;;;;4.78;2.90;;;;;;;24.67;45.29;100855.90;1762658;79;21059;-80
2022/09/08 11:35:08;;;;;;;7.55;3.42;;;;;;;24.67;45.36;100855.33;1802265;79;21115;-79
2022/09/08 11:38:00;;;;;;;7.22;3.55;;;;;;;24.67;45.54;100851.73;1804618;77;22086;-79
2022/09/08 11:40:47;;;;;;;8.53;3.22;;;;;;;24.68;45.63;100854.17;1801224;78;21632;-78
2022/09/08 11:43:39;;;;;;;8.75;3.20;;;;;;;24.68;45.78;100846.41;1792137;78;21984;-80
2022/09/08 11:46:35;;;;;;;8.03;3.10;;;;;;;24.68;45.89;100846.41;1795180;78;22094;-80
2022/09/08 11:49:25;;;;;;;11.05;3.77;;;;;;;24.67;45.75;100845.59;1792949;79;21083;-78
2022/09/08 11:52:29;;;;;;;20.20;3.62;;;;;;;24.67;45.60;100836.42;1793516;79;21017;-77
2022/09/08 11:55:43;;;;;;;11.22;3.00;;;;;;;24.66;45.89;100838.39;1790657;78;21185;-80
2022/09/08 11:58:21;;;;;;;15.35;3.70;;;;;;;24.71;46.13;100848.48;1793321;78;21052;-79
2022/09/08 12:01:11;;;;;;;13.78;3.70;;;;;;;24.74;46.31;100843.05;1797637;77;21103;-79
2022/09/08 12:04:20;;;;;;;15.47;3.03;;;;;;;24.80;46.22;100839.47;1788476;79;21096;-79
2022/09/08 12:07:31;;;;;;;13.88;4.37;;;;;;;24.83;46.40;100825.67;1785037;79;21137;-76
2022/09/08 12:10:23;;;;;;;11.08;3.50;;;;;;;24.85;46.75;100822.55;1784536;78;21466;-77
2022/09/08 12:13:24;;;;;;;17.57;3.20;;;;;;;24.85;46.42;100823.41;1791918;79;21577;-76
2022/09/08 12:15:59;;;;;;;7.12;3.05;;;;;;;24.87;46.00;100820.25;1781789;79;21006;-77
2022/09/08 12:18:43;;;;;;;24.07;17.62;;;;;;;24.95;45.42;100821.53;1801030;79;21044;-76
2022/09/08 12:21:27;;;;;;;17.07;7.95;;;;;;;25.05;44.51;100817.49;1791299;77;21035;-79
2022/09/08 12:24:14;;;;;;;7.42;4.70;;;;;;;25.11;44.36;100818.90;1778202;79;21179;-78
2022/09/08 12:26:55;;;;;;;4.80;3.45;;;;;;;25.09;44.11;100809.25;1745627;79;21054;-81
2022/09/08 12:29:33;;;;;;;8.25;2.92;;;;;;;25.09;44.01;100802.29;1794478;78;21032;-79
2022/09/08 12:32:28;;;;;;;7.00;3.83;;;;;;;25.11;43.72;100799.98;1793965;77;22259;-80
2022/09/08 12:35:18;;;;;;;8.15;3.47;;;;;;;25.14;43.51;100795.10;1822052;77;21098;-80
2022/09/08 12:38:02;;;;;;;5.72;3.00;;;;;;;25.14;43.39;100797.31;1823275;77;21571;-81
2022/09/08 12:40:58;;;;;;;6.42;2.80;;;;;;;25.16;42.99;100791.41;1735137;79;21027;-78
2022/09/08 12:43:26;;;;;;;5.87;2.80;;;;;;;25.20;42.78;100791.75;1766947;79;21053;-77
2022/09/08 12:46:17;;;;;;;3.30;2.77;;;;;;;25.20;42.64;100793.14;1787912;79;21168;-80
2022/09/08 12:49:10;;;;;;;6.12;2.90;;;;;;;25.19;42.58;100785.95;1785617;79;21256;-79
2022/09/08 12:51:39;;;;;;;6.53;2.75;;;;;;;25.15;42.47;100786.41;1799627;78;20980;-77
2022/09/08 12:54:23;;;;;;;10.30;3.10;;;;;;;25.14;42.69;100786.17;1794312;79;21073;-76
2022/09/08 12:57:17;;;;;;;10.08;3.50;;;;;;;25.13;43.72;100785.94;1786923;79;21100;-75
2022/09/08 13:00:11;;;;;;;10.60;3.20;;;;;;;25.15;44.50;100788.38;1798264;79;21048;-76
2022/09/08 13:03:14;;;;;;;12.03;3.50;;;;;;;25.19;44.58;100789.30;1776861;78;21551;-77
2022/09/08 13:05:54;;;;;;;7.72;3.25;;;;;;;25.21;44.52;100788.36;1784305;78;21510;-76
2022/09/08 13:09:07;;;;;;;9.95;3.65;;;;;;;25.26;43.79;100788.95;1791407;78;21298;-75
2022/09/08 13:11:47;;;;;;;6.55;2.80;;;;;;;25.32;43.27;100784.77;1785904;79;21526;-77
2022/09/08 13:14:14;;;;;;;6.58;3.10;;;;;;;25.33;42.90;100785.59;1776849;78;21115;-77
2022/09/08 13:16:49;;;;;;;8.00;3.00;;;;;;;25.41;42.31;100791.61;1783265;78;21144;-78
2022/09/08 13:19:28;;;;;;;6.00;3.08;;;;;;;25.46;42.09;100786.59;1790798;78;21056;-78
2022/09/08 13:22:29;;;;;;;4.97;2.80;;;;;;;25.49;41.88;100794.84;1782823;79;21139;-79
2022/09/08 13:25:17;;;;;;;;;;;;;;;25.55;41.41;100792.05;1781894;79;21088;-78
2022/09/08 13:28:07;;;;;;;4.58;3.02;;;;;;;25.61;41.41;100794.03;1785837;79;20354;-78
2022/09/08 13:31:07;;;;;;;6.17;2.90;;;;;;;25.57;41.43;100788.93;1793003;79;21577;-79
2022/09/08 13:34:17;;;;;;;4.92;3.25;;;;;;;25.54;41.34;100796.03;1788184;79;21110;-78
2022/09/08 13:37:21;;;;;;;6.10;2.65;;;;;;;25.49;41.32;100793.45;1696082;82;21607;-77
2022/09/08 13:40:11;;;;;;;5.45;2.83;;;;;;;25.48;41.17;100798.78;1796128;78;22274;-78
2022/09/08 13:42:54;;;;;;;6.15;2.77;;;;;;;25.50;40.99;100795.66;1822717;78;22222;-76
2022/09/08 13:46:06;;;;;;;6.00;2.83;;;;;;;25.46;40.88;100790.77;1798895;78;21032;-78
2022/09/08 13:49:00;;;;;;;6.25;2.58;;;;;;;25.42;40.72;100798.78;1808677;79;21977;-79
2022/09/08 13:51:52;;;;;;;10.72;3.25;;;;;;;25.38;41.03;100790.31;1757684;77;21377;-79
2022/09/08 13:54:36;;;;;;;6.87;3.15;;;;;;;25.35;41.57;100793.81;1812829;79;21056;-76
2022/09/08 13:57:46;;;;;;;10.13;3.87;;;;;;;25.33;42.06;100791.94;1832716;77;21218;-77
2022/09/08 14:00:21;;;;;;;15.47;3.63;;;;;;;25.29;42.28;100793.80;1808802;78;20997;-76
2022/09/08 14:03:01;;;;;;;16.35;3.70;;;;;;;25.28;42.90;100790.81;1823009;77;21038;-77
2022/09/08 14:05:43;;;;;;;13.70;3.65;;;;;;;25.29;43.59;100791.62;1823599;77;21260;-77
2022/09/08 14:08:17;;;;;;;11.63;3.60;;;;;;;25.30;44.21;100797.41;1761884;79;21015;-76
2022/09/08 14:11:07;;;;;;;16.67;4.50;;;;;;;25.31;44.73;100796.25;1762675;79;21708;-77
2022/09/08 14:13:35;;;;;;;10.15;3.40;;;;;;;25.31;45.18;100794.28;1822482;77;21024;-76
2022/09/08 14:16:10;;;;;;;12.05;3.30;;;;;;;25.32;44.97;100790.92;1823406;77;21408;-78
2022/09/08 14:19:09;;;;;;;11.30;3.80;;;;;;;25.32;44.50;100791.73;1797479;79;21771;-76
2022/09/08 14:21:58;;;;;;;7.20;3.30;;;;;;;25.33;44.12;100793.33;1830867;77;21960;-77
2022/09/08 14:24:55;;;;;;;8.73;3.20;;;;;;;25.34;43.68;100793.57;1802517;77;21091;-79
2022/09/08 14:27:36;;;;;;;5.10;3.12;;;;;;;25.33;43.27;100785.59;1806277;77;21055;-75
2022/09/08 14:30:23;;;;;;;6.55;3.12;;;;;;;25.32;43.04;100791.73;1794337;79;22439;-79
2022/09/08 14:32:58;;;;;;;10.40;3.27;;;;;;;25.31;42.79;100789.29;1798732;77;21081;-78
2022/09/08 14:35:35;;;;;;;8.60;3.00;;;;;;;25.29;42.62;100791.62;1803804;77;21521;-77
2022/09/08 14:38:20;;;;;;;7.33;3.10;;;;;;;25.29;42.48;100792.41;1811114;78;21526;-77
2022/09/08 14:41:04;;;;;;;6.87;3.35;;;;;;;25.29;42.73;100789.63;1816356;78;21056;-74
2022/09/08 14:43:51;;;;;;;13.18;3.58;;;;;;;25.27;42.94;100785.58;1832567;77;22004;-76
2022/09/08 14:46:31;;;;;;;7.80;2.92;;;;;;;25.25;43.17;100776.78;1796924;79;21025;-77
2022/09/08 14:49:25;;;;;;;9.10;3.42;;;;;;;25.24;43.50;100780.14;1805260;79;21061;-76
2022/09/08 14:52:10;;;;;;;11.40;3.77;;;;;;;25.25;43.63;100775.39;1831411;77;21083;-77
2022/09/08 14:55:12;;;;;;;8.58;3.58;;;;;;;25.24;43.88;100770.40;1827587;77;21486;-77
2022/09/08 14:58:05;;;;;;;8.85;3.20;;;;;;;25.27;44.42;100771.66;1812720;78;21632;-79
2022/09/08 15:00:38;;;;;;;8.15;3.45;;;;;;;25.27;44.86;100769.69;1781312;79;21494;-76
2022/09/08 15:03:20;;;;;;;11.30;4.12;;;;;;;25.27;45.16;100768.30;1786223;79;21073;-77
2022/09/08 15:05:48;;;;;;;7.12;3.65;;;;;;;25.27;45.29;100759.95;1817734;77;20977;-76
2022/09/08 15:08:21;;;;;;;16.57;3.80;;;;;;;25.27;45.03;100759.95;1820474;77;21628;-76
2022/09/08 15:11:23;;;;;;;8.75;3.85;;;;;;;25.28;45.12;100762.97;1815330;77;21196;-77
2022/09/08 15:14:11;;;;;;;9.60;3.65;;;;;;;25.28;45.26;100763.55;1806575;77;21118;-78
2022/09/08 15:16:55;;;;;;;6.55;3.60;;;;;;;25.27;44.96;100766.09;1777237;78;21048;-77
2022/09/08 15:19:30;;;;;;;5.67;2.70;;;;;;;25.26;44.77;100768.06;1813269;78;21536;-78
2022/09/08 15:21:57;;;;;;;11.85;3.25;;;;;;;25.25;44.29;100763.64;1839254;77;21063;-79
2022/09/08 15:24:37;;;;;;;7.70;3.25;;;;;;;25.25;44.49;100761.47;1771751;79;21240;-78
2022/09/08 15:27:29;;;;;;;10.25;3.40;;;;;;;25.24;44.74;100756.48;1793201;78;21017;-78
2022/09/08 15:30:01;;;;;;;9.25;3.37;;;;;;;25.23;44.90;100759.59;1813338;78;21036;-78
2022/09/08 15:33:01;;;;;;;11.60;3.50;;;;;;;25.21;44.90;100758.55;1820099;75;21541;-79
2022/09/08 15:35:59;;;;;;;14.53;4.17;;;;;;;25.21;44.83;100761.91;1799918;77;21098;-76
2022/09/08 15:38:51;;;;;;;12.80;3.72;;;;;;;25.19;44.68;100761.46;1799707;77;21969;-78
2022/09/08 15:41:27;;;;;;;7.90;2.92;;;;;;;25.18;44.45;100767.61;1811167;77;21181;-79
2022/09/08 15:44:25;;;;;;;6.65;2.75;;;;;;;25.19;44.09;100778.17;1817698;76;21094;-78
2022/09/08 15:47:00;;;;;;;6.35;3.15;;;;;;;25.18;43.83;100773.75;1797655;77;22077;-79
2022/09/08 15:49:40;;;;;;;7.30;3.08;;;;;;;25.18;43.58;100773.17;1814049;77;21077;-78
2022/09/08 15:52:14;;;;;;;10.80;3.12;;;;;;;25.18;43.49;100770.39;1811994;77;21922;-77
2022/09/08 15:54:48;;;;;;;6.22;3.02;;;;;;;25.18;43.36;100769.00;1793811;78;21058;-77
2022/09/08 15:57:27;;;;;;;7.50;3.10;;;;;;;25.17;43.63;100769.34;1798836;78;21044;-78
2022/09/08 16:00:30;;;;;;;9.48;3.20;;;;;;;25.16;43.52;100765.77;1810492;78;21090;-80
2022/09/08 16:03:04;;;;;;;5.10;3.47;;;;;;;25.16;43.52;100769.13;1805977;79;21128;-75
2022/09/08 16:05:54;;;;;;;10.28;3.25;;;;;;;25.15;43.71;100766.11;1798661;79;21061;-77
2022/09/08 16:08:48;;;;;;;5.62;2.90;;;;;;;25.14;44.04;100768.66;1790767;79;21457;-77
2022/09/08 16:11:36;;;;;;;6.65;3.87;;;;;;;25.12;44.42;100768.99;1779131;79;21041;-77
2022/09/08 16:14:11;;;;;;;9.88;4.67;;;;;;;25.12;44.50;100770.99;1790710;78;21086;-75
2022/09/08 16:16:45;;;;;;;9.78;4.67;;;;;;;25.11;44.92;100768.78;1794444;79;20975;-75
2022/09/08 16:19:19;;;;;;;21.00;8.43;;;;;;;25.14;45.31;100772.83;1780191;79;21075;-76
2022/09/08 16:22:19;;;;;;;17.00;7.28;;;;;;;25.14;45.39;100765.30;1779248;79;21574;-76
2022/09/08 16:24:57;;;;;;;12.60;6.28;;;;;;;25.15;45.45;100767.50;1802001;78;21075;-76
2022/09/08 16:28:00;;;;;;;14.95;6.47;;;;;;;25.15;45.55;100759.97;1803397;77;21024;-76
2022/09/08 16:30:52;;;;;;;13.03;6.35;;;;;;;25.15;45.15;100762.75;1789889;79;21037;-76
2022/09/08 16:33:23;;;;;;;19.07;6.08;;;;;;;25.13;44.72;100762.27;1800506;78;21786;-76
2022/09/08 16:36:16;;;;;;;10.23;4.03;;;;;;;25.11;44.73;100761.01;1823359;77;21028;-77
2022/09/08 16:39:00;;;;;;;8.78;4.22;;;;;;;25.10;44.53;100757.98;1800510;78;21647;-77
2022/09/08 16:41:59;;;;;;;8.95;5.25;;;;;;;25.08;44.19;100758.33;1762990;81;21089;-78
2022/09/08 16:44:28;;;;;;;9.23;5.62;;;;;;;25.06;44.23;100762.05;1795090;78;21617;-76
2022/09/08 16:47:13;;;;;;;12.07;8.05;;;;;;;25.04;44.31;100756.02;1798192;78;22048;-76
2022/09/08 16:49:50;;;;;;;20.48;10.10;;;;;;;25.03;44.35;100757.77;1772631;80;21119;-77
2022/09/08 16:52:54;;;;;;;19.35;9.13;;;;;;;25.00;44.42;100759.26;1776778;79;21065;-76
2022/09/08 16:55:57;;;;;;;21.02;9.88;;;;;;;24.98;44.54;100753.25;1793245;80;21102;-76
2022/09/08 16:58:32;;;;;;;24.25;15.65;;;;;;;24.98;44.76;100747.68;1789196;80;21005;-77
2022/09/08 17:01:23;;;;;;;20.82;11.70;;;;;;;24.97;44.71;100757.19;1780642;78;21473;-76
2022/09/08 17:04:02;;;;;;;19.92;11.57;;;;;;;24.95;44.88;100751.95;1779817;79;21040;-76
2022/09/08 17:06:35;;;;;;;20.90;8.93;;;;;;;24.95;45.13;100747.00;1778195;79;21578;-76
2022/09/08 17:09:16;;;;;;;15.43;8.38;;;;;;;24.96;45.36;100743.03;1780220;80;21102;-76
2022/09/08 17:11:48;;;;;;;17.02;8.60;;;;;;;24.96;45.51;100754.16;1770893;79;21008;-76
2022/09/08 17:14:17;;;;;;;14.68;7.67;;;;;;;24.97;45.68;100759.39;1774508;79;21728;-77
2022/09/08 17:17:32;;;;;;;13.90;7.80;;;;;;;24.99;45.80;100761.84;1771035;80;20986;-76
2022/09/08 17:19:59;;;;;;;14.83;7.08;;;;;;;24.99;45.94;100764.62;1775640;80;21402;-76
2022/09/08 17:22:57;;;;;;;15.45;7.60;;;;;;;24.98;46.04;100764.38;1771228;80;21028;-77
2022/09/08 17:26:06;;;;;;;15.72;7.22;;;;;;;24.99;46.16;100766.02;1778841;80;21579;-77
2022/09/08 17:28:57;;;;;;;9.75;6.45;;;;;;;24.98;46.22;100767.98;1771196;80;21044;-77
2022/09/08 17:31:34;;;;;;;10.58;6.40;;;;;;;24.98;46.29;100772.73;1766274;79;21062;-77
2022/09/08 17:34:27;;;;;;;15.23;5.97;;;;;;;24.99;46.39;100779.93;1763623;81;20987;-77
2022/09/08 17:37:01;;;;;;;13.13;6.12;;;;;;;24.98;46.49;100785.25;1772096;80;21092;-77
2022/09/08 17:39:42;;;;;;;15.13;6.47;;;;;;;24.98;46.54;100791.64;1767991;79;21074;-77
2022/09/08 17:42:25;;;;;;;14.23;6.92;;;;;;;24.97;46.63;100795.58;1727964;83;21235;-77
2022/09/08 17:45:20;;;;;;;11.35;5.80;;;;;;;24.98;46.68;100795.00;1706134;80;21056;-77
2022/09/08 17:48:01;;;;;;;10.45;5.28;;;;;;;24.97;46.72;100801.72;1759581;81;21520;-77
2022/09/08 17:50:40;;;;;;;11.70;6.08;;;;;;;24.97;46.75;100808.09;1761070;80;21612;-76
2022/09/08 17:53:32;;;;;;;9.48;5.80;;;;;;;24.96;46.79;100807.05;1731891;80;21070;-76
2022/09/08 17:56:23;;;;;;;8.33;5.72;;;;;;;24.96;46.83;100812.03;1723033;81;21533;-77
2022/09/08 17:59:21;;;;;;;12.35;5.85;;;;;;;24.96;46.87;100810.64;1755822;80;21106;-76
2022/09/08 18:02:33;;;;;;;9.03;5.87;;;;;;;24.94;46.90;100817.16;1763551;79;20983;-77
2022/09/08 18:05:21;;;;;;;9.45;5.10;;;;;;;24.95;46.90;100823.53;1761762;80;21046;-76
2022/09/08 18:07:56;;;;;;;9.85;5.80;;;;;;;24.94;46.91;100817.73;1732040;82;21046;-77
2022/09/08 18:10:50;;;;;;;11.53;5.80;;;;;;;24.93;46.95;100811.34;1715862;82;21189;-76
2022/09/08 18:13:40;;;;;;;12.93;5.70;;;;;;;24.94;47.02;100813.55;1772955;79;20995;-76
2022/09/08 18:16:33;;;;;;;9.25;5.60;;;;;;;24.93;47.00;100804.96;1797872;79;21048;-77
2022/09/08 18:19:28;;;;;;;11.20;5.62;;;;;;;24.93;47.02;100798.01;1754436;81;21061;-76
2022/09/08 18:22:39;;;;;;;7.67;5.85;;;;;;;24.92;47.04;100795.80;1819220;78;20996;-76
2022/09/08 18:25:17;;;;;;;;;;;;;;;24.93;47.05;100793.83;1790064;79;21532;-76
2022/09/08 18:28:01;;;;;;;11.48;5.70;;;;;;;24.90;47.07;100791.17;1815977;77;20731;-76
2022/09/08 18:30:30;;;;;;;7.58;5.87;;;;;;;24.89;47.01;100789.55;1819318;78;21019;-76
2022/09/08 18:33:14;;;;;;;10.60;5.65;;;;;;;24.90;47.05;100787.58;1819078;78;21511;-76
2022/09/08 18:36:22;;;;;;;10.80;5.90;;;;;;;24.90;47.07;100788.97;1818088;78;21070;-76
2022/09/08 18:38:49;;;;;;;8.80;6.00;;;;;;;24.89;47.08;100788.16;1696347;82;21388;-76
2022/09/08 18:41:51;;;;;;;10.80;5.22;;;;;;;24.89;47.07;100780.38;1773082;79;21034;-76
2022/09/08 18:44:37;;;;;;;8.55;5.08;;;;;;;24.90;47.11;100786.19;1747123;80;21102;-77
2022/09/08 18:47:30;;;;;;;10.20;5.80;;;;;;;24.90;47.11;100786.19;1757919;80;20960;-77
2022/09/08 18:50:17;;;;;;;11.53;5.62;;;;;;;24.90;47.12;100790.36;1747485;80;22380;-76
2022/09/08 18:52:55;;;;;;;9.00;5.65;;;;;;;24.89;47.13;100785.95;1793980;79;21525;-77
2022/09/08 18:55:35;;;;;;;8.68;5.20;;;;;;;24.89;47.13;100792.33;1762049;79;21066;-77
2022/09/08 18:58:16;;;;;;;12.80;5.90;;;;;;;24.89;47.14;100789.55;1780195;79;21090;-77
2022/09/08 19:01:09;;;;;;;8.90;5.25;;;;;;;24.89;47.13;100791.52;1788808;77;21318;-77
2022/09/08 19:03:58;;;;;;;7.87;5.42;;;;;;;24.89;47.14;100785.95;1806283;79;20995;-77
2022/09/08 19:06:50;;;;;;;11.40;5.80;;;;;;;24.89;47.15;100790.12;1803489;78;21164;-77
2022/09/08 19:10:02;;;;;;;8.50;5.40;;;;;;;24.89;47.17;100790.94;1793958;80;21508;-77
2022/09/08 19:12:46;;;;;;;8.05;5.70;;;;;;;24.88;47.14;100797.66;1793080;79;21082;-77
2022/09/08 19:15:33;;;;;;;7.70;5.55;;;;;;;24.88;47.14;100791.27;1775835;80;21021;-76
2022/09/08 19:18:00;;;;;;;8.93;5.40;;;;;;;24.87;47.16;100786.86;1762720;78;21040;-76
2022/09/08 19:20:28;;;;;;;8.28;5.35;;;;;;;24.88;47.19;100796.84;1770219;80;21125;-77
2022/09/08 19:23:14;;;;;;;7.53;5.67;;;;;;;24.86;47.19;100794.42;1793846;80;21020;-76
2022/09/08 19:25:42;;;;;;;10.30;5.78;;;;;;;24.88;47.20;100791.27;1795266;78;20955;-76
2022/09/08 19:28:27;;;;;;;8.35;5.42;;;;;;;24.87;47.20;100799.37;1797483;79;21055;-76
2022/09/08 19:31:13;;;;;;;7.60;5.22;;;;;;;24.89;47.20;100799.86;1806975;78;21042;-76
2022/09/08 19:34:01;;;;;;;10.45;5.12;;;;;;;24.88;47.19;100795.45;1803318;78;21145;-76
2022/09/08 19:36:51;;;;;;;9.45;5.42;;;;;;;24.87;47.19;100791.03;1734253;80;21257;-76
2022/09/08 19:39:26;;;;;;;8.03;5.75;;;;;;;24.87;47.19;100795.20;1795969;79;21039;-76
2022/09/08 19:42:14;;;;;;;8.83;5.75;;;;;;;24.87;47.17;100796.02;1772281;80;21052;-77
2022/09/08 19:44:57;;;;;;;7.72;5.83;;;;;;;24.87;47.20;100799.37;1776109;80;21056;-77
2022/09/08 19:48:01;;;;;;;8.80;5.40;;;;;;;24.87;47.20;100807.73;1783050;79;21965;-76
2022/09/08 19:50:37;;;;;;;10.82;5.30;;;;;;;24.87;47.22;100810.52;1777285;80;21029;-76
2022/09/08 19:53:32;;;;;;;7.75;5.17;;;;;;;24.86;47.20;100815.30;1778806;79;21106;-76
2022/09/08 19:56:40;;;;;;;8.93;5.33;;;;;;;24.85;47.22;100819.22;1793466;79;21017;-76
2022/09/08 19:59:20;;;;;;;6.62;4.83;;;;;;;24.86;47.20;100844.52;1766091;80;21515;-76
2022/09/08 20:01:52;;;;;;;10.18;5.47;;;;;;;24.86;47.17;100847.88;1798496;78;21816;-76
2022/09/08 20:04:51;;;;;;;10.25;5.85;;;;;;;24.85;47.16;100836.47;1799410;79;21029;-76
2022/09/08 20:07:51;;;;;;;9.38;5.35;;;;;;;24.86;47.16;100827.00;1738040;81;20916;-76
2022/09/08 20:10:26;;;;;;;7.47;4.97;;;;;;;24.85;47.17;100828.97;1790443;79;20998;-77
2022/09/08 20:13:23;;;;;;;7.58;5.97;;;;;;;24.85;47.16;100821.16;1798915;78;21561;-77
2022/09/08 20:16:04;;;;;;;8.98;5.62;;;;;;;24.85;47.17;100828.12;1796316;79;21416;-76
2022/09/08 20:18:57;;;;;;;7.62;5.45;;;;;;;24.83;47.17;100838.77;1797621;79;21100;-76
2022/09/08 20:21:47;;;;;;;8.95;5.47;;;;;;;24.84;47.18;100830.09;1799581;79;21100;-76
2022/09/08 20:24:41;;;;;;;9.38;5.45;;;;;;;24.84;47.18;100843.19;1799180;79;20984;-77
2022/09/08 20:27:16;;;;;;;7.67;4.97;;;;;;;24.84;47.21;100833.44;1799563;78;20984;-77
2022/09/08 20:29:51;;;;;;;8.88;5.42;;;;;;;24.84;47.21;100837.62;1798626;78;21945;-77
2022/09/08 20:32:42;;;;;;;8.53;5.67;;;;;;;24.84;47.23;100838.44;1799167;79;21048;-78
2022/09/08 20:35:26;;;;;;;8.08;5.22;;;;;;;24.83;47.23;100823.46;1799107;79;21028;-77
2022/09/08 20:38:03;;;;;;;7.12;5.10;;;;;;;24.83;47.23;100834.02;1798934;78;21054;-77
2022/09/08 20:40:38;;;;;;;8.70;5.55;;;;;;;24.84;47.23;100833.44;1799648;79;21035;-77
2022/09/08 20:43:35;;;;;;;7.33;4.80;;;;;;;24.83;47.23;100824.28;1799437;78;21049;-77